createdAt,value
2023-02-18T00:01:41.623Z,78.50
2023-02-18T00:04:11.477Z,78.50
2023-02-18T00:06:39.810Z,78.60
2023-02-18T00:09:09.291Z,78.70
2023-02-18T00:11:39.245Z,78.70
2023-02-18T00:14:12.048Z,78.50
2023-02-18T00:16:40.382Z,78.60
2023-02-18T00:19:12.798Z,78.50
2023-02-18T00:21:41.163Z,79.20
2023-02-18T00:24:10.429Z,78.60
2023-02-18T00:26:38.773Z,78.70
2023-02-18T00:29:07.072Z,78.70
2023-02-18T00:31:37.355Z,78.60
2023-02-18T00:34:06.849Z,78.70
2023-02-18T00:36:37.124Z,78.80
2023-02-18T00:39:08.023Z,78.80
2023-02-18T00:41:37.372Z,79.10
2023-02-18T00:44:06.409Z,79.30
2023-02-18T00:46:34.860Z,79.20
2023-02-18T00:49:03.525Z,79.50
2023-02-18T00:51:32.187Z,79.80
2023-02-18T00:54:01.885Z,79.80
2023-02-18T00:56:30.227Z,80.10
2023-02-18T00:58:58.603Z,80.20
2023-02-18T01:01:27.980Z,80.20
2023-02-18T01:03:56.384Z,80.10
2023-02-18T01:06:24.712Z,80.10
2023-02-18T01:08:53.006Z,80.10
2023-02-18T01:11:22.774Z,80.00
2023-02-18T01:13:51.079Z,79.80
2023-02-18T01:16:19.448Z,79.70
2023-02-18T01:18:47.911Z,79.60
2023-02-18T01:21:16.979Z,79.50
2023-02-18T01:23:45.327Z,79.40
2023-02-18T01:26:13.941Z,79.40
2023-02-18T01:28:43.741Z,79.20
2023-02-18T01:31:17.082Z,79.20
2023-02-18T01:33:45.616Z,79.20
2023-02-18T01:36:14.435Z,79.30
2023-02-18T01:38:42.822Z,79.40
2023-02-18T01:41:11.738Z,79.30
2023-02-18T01:43:40.382Z,79.50
2023-02-18T01:46:18.624Z,79.50
2023-02-18T01:48:51.546Z,79.50
2023-02-18T01:51:23.435Z,79.70
2023-02-18T01:53:57.019Z,79.70
2023-02-18T01:56:30.692Z,80.10
2023-02-18T01:59:02.348Z,80.10
2023-02-18T02:01:33.616Z,80.20
2023-02-18T02:04:02.028Z,80.40
2023-02-18T02:06:30.596Z,80.40
2023-02-18T02:09:02.270Z,80.70
2023-02-18T02:12:02.869Z,80.60
2023-02-18T02:14:52.079Z,80.70
2023-02-18T02:17:31.817Z,80.90
2023-02-18T02:20:38.605Z,81.10
2023-02-18T02:23:40.863Z,81.00
2023-02-18T02:26:49.972Z,81.00
2023-02-18T02:29:54.864Z,81.00
2023-02-18T02:32:56.459Z,80.80
2023-02-18T02:35:27.749Z,81.10
2023-02-18T02:38:03.404Z,81.10
2023-02-18T02:40:38.300Z,81.10
2023-02-18T02:43:14.816Z,81.00
2023-02-18T02:45:54.093Z,81.30
2023-02-18T02:48:37.032Z,81.10
2023-02-18T02:51:12.021Z,81.40
2023-02-18T02:53:43.400Z,81.40
2023-02-18T02:56:15.918Z,81.70
2023-02-18T02:58:45.598Z,81.80
2023-02-18T03:01:30.670Z,81.90
2023-02-18T03:04:24.194Z,82.10
2023-02-18T03:07:11.452Z,82.60
2023-02-18T03:09:54.503Z,82.60
2023-02-18T03:12:31.140Z,82.90
2023-02-18T03:15:06.286Z,82.90
2023-02-18T03:17:39.380Z,83.00
2023-02-18T03:20:11.801Z,82.80
2023-02-18T03:22:46.150Z,83.00
2023-02-18T03:25:15.827Z,83.00
2023-02-18T03:27:48.475Z,83.20
2023-02-18T03:30:22.616Z,83.40
2023-02-18T03:32:56.438Z,83.50
2023-02-18T03:35:26.245Z,83.80
2023-02-18T03:38:01.129Z,84.20
2023-02-18T03:40:30.055Z,84.30
2023-02-18T03:42:58.901Z,84.60
2023-02-18T03:45:27.490Z,84.50
2023-02-18T03:47:55.926Z,84.80
2023-02-18T03:50:24.239Z,84.80
2023-02-18T03:52:52.605Z,85.00
2023-02-18T03:55:22.427Z,85.00
2023-02-18T03:57:50.739Z,85.00
2023-02-18T04:00:20.347Z,85.00
2023-02-18T04:02:48.771Z,84.90
2023-02-18T04:05:17.361Z,84.80
2023-02-18T04:07:45.640Z,84.40
2023-02-18T04:10:14.225Z,84.00
2023-02-18T04:12:43.915Z,83.90
2023-02-18T04:15:13.850Z,83.60
2023-02-18T04:17:42.249Z,83.40
2023-02-18T04:20:11.404Z,83.10
2023-02-18T04:22:39.797Z,83.00
2023-02-18T04:25:09.007Z,82.80
2023-02-18T04:27:37.292Z,82.60
2023-02-18T04:30:09.099Z,82.50
2023-02-18T04:32:37.522Z,82.30
2023-02-18T04:35:06.600Z,82.20
2023-02-18T04:37:35.044Z,82.20
2023-02-18T04:40:03.385Z,82.10
2023-02-18T04:42:31.945Z,82.00
2023-02-18T04:45:00.289Z,82.00
2023-02-18T04:47:30.064Z,81.90
2023-02-18T04:49:58.408Z,82.00
2023-02-18T04:52:26.755Z,81.70
2023-02-18T04:54:55.106Z,82.40
2023-02-18T04:57:23.427Z,81.60
2023-02-18T04:59:52.019Z,81.60
2023-02-18T05:02:20.360Z,81.40
2023-02-18T05:04:50.097Z,81.40
2023-02-18T05:07:18.630Z,81.40
2023-02-18T05:09:47.114Z,81.30
2023-02-18T05:12:15.442Z,81.20
2023-02-18T05:14:43.727Z,81.10
2023-02-18T05:17:12.029Z,81.10
2023-02-18T05:19:40.355Z,81.10
2023-02-18T05:22:10.211Z,81.10
2023-02-18T05:24:38.494Z,81.10
2023-02-18T05:27:06.841Z,81.10
2023-02-18T05:29:35.114Z,81.10
2023-02-18T05:32:03.435Z,81.10
2023-02-18T05:34:31.786Z,81.10
2023-02-18T05:37:00.049Z,81.30
2023-02-18T05:39:29.844Z,81.30
2023-02-18T05:41:58.209Z,81.40
2023-02-18T05:44:32.642Z,81.40
2023-02-18T05:47:03.178Z,81.40
2023-02-18T05:49:32.769Z,81.40
2023-02-18T05:52:01.200Z,81.50
2023-02-18T05:54:30.950Z,81.40
2023-02-18T05:56:59.366Z,81.60
2023-02-18T05:59:27.826Z,81.60
2023-02-18T06:01:56.509Z,81.60
2023-02-18T06:04:25.580Z,81.60
2023-02-18T06:06:54.778Z,81.40
2023-02-18T06:09:23.564Z,81.40
2023-02-18T06:11:53.506Z,81.30
2023-02-18T06:14:21.851Z,81.20
2023-02-18T06:16:50.186Z,81.80
2023-02-18T06:19:18.582Z,81.00
2023-02-18T06:21:47.010Z,81.00
2023-02-18T06:24:15.347Z,80.80
2023-02-18T06:26:43.693Z,80.90
2023-02-18T06:29:13.471Z,80.80
2023-02-18T06:31:41.878Z,80.80
2023-02-18T06:34:10.276Z,80.80
2023-02-18T06:36:38.598Z,80.70
2023-02-18T06:39:07.635Z,80.60
2023-02-18T06:41:36.159Z,80.50
2023-02-18T06:44:04.666Z,80.40
2023-02-18T06:46:34.710Z,80.30
2023-02-18T06:49:03.084Z,80.20
2023-02-18T06:51:31.658Z,80.10
2023-02-18T06:53:59.982Z,79.80
2023-02-18T06:56:30.100Z,79.70
2023-02-18T06:58:59.289Z,79.60
2023-02-18T07:01:27.602Z,79.40
2023-02-18T07:03:57.537Z,79.20
2023-02-18T07:06:26.226Z,79.10
2023-02-18T07:08:54.617Z,78.80
2023-02-18T07:11:23.023Z,78.90
2023-02-18T07:13:51.410Z,78.70
2023-02-18T07:16:19.754Z,78.60
2023-02-18T07:18:48.285Z,78.50
2023-02-18T07:21:17.971Z,78.70
2023-02-18T07:23:46.330Z,78.50
2023-02-18T07:26:15.952Z,78.30
2023-02-18T07:28:44.415Z,78.00
2023-02-18T07:31:12.886Z,78.00
2023-02-18T07:33:41.285Z,78.00
2023-02-18T07:36:10.749Z,77.70
2023-02-18T07:38:42.053Z,77.50
2023-02-18T07:41:18.479Z,77.40
2023-02-18T07:43:46.935Z,76.90
2023-02-18T07:46:15.593Z,76.90
2023-02-18T07:48:44.179Z,76.90
2023-02-18T07:51:13.665Z,77.00
2023-02-18T07:53:46.090Z,76.90
2023-02-18T07:56:14.656Z,76.90
2023-02-18T07:58:43.045Z,76.90
2023-02-18T08:01:15.512Z,77.10
2023-02-18T08:03:44.279Z,76.90
2023-02-18T08:06:21.792Z,76.90
2023-02-18T08:08:51.544Z,76.90
2023-02-18T08:11:19.973Z,76.90
2023-02-18T08:13:48.675Z,76.90
2023-02-18T08:16:18.084Z,76.90
2023-02-18T08:18:47.971Z,76.90
2023-02-18T08:21:16.627Z,76.90
2023-02-18T08:23:45.410Z,76.80
2023-02-18T08:26:15.204Z,76.90
2023-02-18T08:28:43.678Z,76.60
2023-02-18T08:31:18.943Z,76.40
2023-02-18T08:33:47.453Z,76.30
2023-02-18T08:36:16.077Z,76.00
2023-02-18T08:38:44.579Z,75.40
2023-02-18T08:41:15.048Z,75.30
2023-02-18T08:43:44.130Z,75.10
2023-02-18T08:46:16.181Z,74.90
2023-02-18T08:48:47.763Z,75.00
2023-02-18T08:51:19.269Z,74.70
2023-02-18T08:53:47.609Z,75.10
2023-02-18T08:56:17.946Z,74.70
2023-02-18T08:58:46.573Z,75.00
2023-02-18T09:01:15.448Z,74.90
2023-02-18T09:03:47.084Z,75.10
2023-02-18T09:06:15.363Z,75.20
2023-02-18T09:08:43.849Z,75.00
2023-02-18T09:11:12.782Z,75.00
2023-02-18T09:13:42.524Z,74.80
2023-02-18T09:16:13.885Z,74.70
2023-02-18T09:18:42.936Z,74.50
2023-02-18T09:21:34.711Z,74.50
2023-02-18T09:24:03.258Z,74.30
2023-02-18T09:26:31.614Z,74.10
2023-02-18T09:29:01.327Z,73.80
2023-02-18T09:31:30.795Z,73.40
2023-02-18T09:34:01.465Z,73.30
2023-02-18T09:36:30.388Z,73.30
2023-02-18T09:38:58.813Z,73.10
2023-02-18T09:41:38.192Z,73.00
2023-02-18T09:44:14.419Z,72.60
2023-02-18T09:46:48.225Z,72.70
2023-02-18T09:49:20.194Z,72.50
2023-02-18T09:51:48.822Z,72.80
2023-02-18T09:54:20.354Z,73.20
2023-02-18T09:56:49.683Z,73.50
2023-02-18T09:59:22.574Z,72.70
2023-02-18T10:01:57.168Z,72.50
2023-02-18T10:04:30.440Z,72.80
2023-02-18T10:07:00.329Z,72.70
2023-02-18T10:09:33.333Z,72.50
2023-02-18T10:12:11.988Z,72.50
2023-02-18T10:14:42.189Z,72.60
2023-02-18T10:17:15.199Z,72.70
2023-02-18T10:19:45.432Z,72.30
2023-02-18T10:22:15.717Z,72.50
2023-02-18T10:24:47.809Z,71.90
2023-02-18T10:27:22.368Z,72.60
2023-02-18T10:29:52.387Z,71.60
2023-02-18T10:32:24.684Z,72.10
2023-02-18T10:35:00.281Z,71.30
2023-02-18T10:37:55.893Z,71.80
2023-02-18T10:40:32.528Z,71.50
2023-02-18T10:43:11.182Z,71.30
2023-02-18T10:45:48.705Z,71.80
2023-02-18T10:48:54.706Z,71.20
2023-02-18T10:51:25.439Z,70.10
2023-02-18T10:53:55.268Z,70.00
2023-02-18T10:56:44.115Z,69.80
2023-02-18T10:59:15.038Z,69.70
2023-02-18T11:01:45.556Z,69.60
2023-02-18T11:04:18.215Z,69.40
2023-02-18T11:06:48.715Z,69.40
2023-02-18T11:09:39.929Z,70.20
2023-02-18T11:12:16.593Z,69.90
2023-02-18T11:14:46.836Z,69.70
2023-02-18T11:17:21.956Z,69.70
2023-02-18T11:19:59.439Z,69.60
2023-02-18T11:22:31.776Z,69.90
2023-02-18T11:25:21.346Z,69.70
2023-02-18T11:27:53.279Z,69.60
2023-02-18T11:30:24.744Z,70.00
2023-02-18T11:32:59.576Z,70.20
2023-02-18T11:35:31.238Z,70.20
2023-02-18T11:38:00.948Z,70.80
2023-02-18T11:40:32.399Z,70.80
2023-02-18T11:43:11.424Z,70.90
2023-02-18T11:45:40.375Z,71.00
2023-02-18T11:48:17.858Z,70.90
2023-02-18T11:50:46.772Z,70.90
2023-02-18T11:53:31.957Z,71.10
2023-02-18T11:56:02.538Z,71.60
2023-02-18T11:58:39.176Z,71.20
2023-02-18T12:01:14.370Z,71.20
2023-02-18T12:03:49.959Z,71.20
2023-02-18T12:06:22.075Z,71.30
2023-02-18T12:08:54.859Z,71.50
2023-02-18T12:11:30.432Z,71.30
2023-02-18T12:13:59.996Z,71.40
2023-02-18T12:16:38.114Z,71.60
2023-02-18T12:19:28.795Z,72.00
2023-02-18T12:22:03.973Z,71.60
2023-02-18T12:24:43.714Z,72.00
2023-02-18T12:27:19.186Z,71.90
2023-02-18T12:33:21.042Z,71.60
2023-02-18T12:36:00.237Z,71.60
2023-02-18T12:39:29.419Z,71.70
2023-02-18T12:42:12.214Z,71.60
2023-02-18T12:44:45.853Z,71.10
2023-02-18T12:47:45.326Z,71.00
2023-02-18T12:50:46.782Z,70.90
2023-02-18T12:53:32.057Z,71.10
2023-02-18T12:56:21.177Z,70.80
2023-02-18T12:58:57.489Z,71.00
2023-02-18T13:01:36.430Z,71.30
2023-02-18T13:04:22.574Z,71.10
2023-02-18T13:07:48.407Z,71.30
2023-02-18T13:10:48.562Z,72.00
2023-02-18T13:13:20.816Z,70.90
2023-02-18T13:15:55.258Z,70.90
2023-02-18T13:18:29.400Z,70.50
2023-02-18T13:21:03.433Z,70.20
2023-02-18T13:23:36.458Z,69.60
2023-02-18T13:26:11.050Z,70.10
2023-02-18T13:28:45.220Z,68.10
2023-02-18T13:31:29.225Z,67.30
2023-02-18T13:34:05.493Z,66.20
2023-02-18T13:36:46.086Z,65.00
2023-02-18T13:39:20.140Z,64.30
2023-02-18T13:41:51.627Z,63.60
2023-02-18T13:44:42.474Z,63.30
2023-02-18T13:47:11.653Z,61.30
2023-02-18T13:49:42.847Z,60.00
2023-02-18T13:52:21.538Z,59.30
2023-02-18T13:54:51.990Z,59.10
2023-02-18T13:57:26.801Z,59.10
2023-02-18T14:00:00.129Z,58.90
2023-02-18T14:02:35.112Z,59.50
2023-02-18T14:05:25.107Z,57.80
2023-02-18T14:07:59.940Z,54.10
2023-02-18T14:10:33.574Z,54.70
2023-02-18T14:13:40.079Z,55.10
2023-02-18T14:16:09.781Z,55.50
2023-02-18T14:19:00.162Z,53.90
2023-02-18T14:21:41.057Z,52.70
2023-02-18T14:24:12.871Z,51.90
2023-02-18T14:26:47.045Z,52.40
2023-02-18T14:29:28.414Z,52.60
2023-02-18T14:32:01.739Z,53.10
2023-02-18T14:35:04.606Z,52.10
2023-02-18T14:38:06.211Z,52.70
2023-02-18T14:41:10.095Z,53.00
2023-02-18T14:44:05.606Z,52.60
2023-02-18T14:46:47.801Z,51.90
2023-02-18T14:49:32.820Z,50.70
2023-02-18T14:52:01.915Z,51.00
2023-02-18T14:54:32.320Z,51.20
2023-02-18T14:57:05.174Z,51.60
2023-02-18T14:59:39.341Z,52.40
2023-02-18T15:02:21.341Z,53.00
2023-02-18T15:04:50.770Z,54.00
2023-02-18T15:07:21.820Z,54.90
2023-02-18T15:09:53.999Z,55.70
2023-02-18T15:12:25.875Z,56.40
2023-02-18T15:14:55.856Z,57.10
2023-02-18T15:17:28.238Z,57.80
2023-02-18T15:19:59.739Z,58.30
2023-02-18T15:22:32.386Z,59.10
2023-02-18T15:25:00.948Z,59.80
2023-02-18T15:27:32.030Z,60.40
2023-02-18T15:30:11.612Z,60.70
2023-02-18T15:32:41.288Z,61.30
2023-02-18T15:35:18.006Z,62.20
2023-02-18T15:37:47.307Z,62.80
2023-02-18T15:40:16.432Z,63.40
2023-02-18T15:42:47.555Z,64.10
2023-02-18T15:45:20.361Z,64.80
2023-02-18T15:47:52.776Z,65.00
2023-02-18T15:50:24.301Z,65.60
2023-02-18T15:52:54.710Z,66.30
2023-02-18T15:55:31.456Z,66.80
2023-02-18T15:58:03.703Z,67.00
2023-02-18T16:00:36.318Z,67.10
2023-02-18T16:03:14.200Z,67.20
2023-02-18T16:05:43.303Z,67.50
2023-02-18T16:08:17.182Z,67.60
2023-02-18T16:10:50.045Z,67.70
2023-02-18T16:13:19.527Z,67.80
2023-02-18T16:15:50.483Z,68.40
2023-02-18T16:18:38.453Z,68.30
2023-02-18T16:21:23.521Z,68.70
2023-02-18T16:23:58.049Z,68.70
2023-02-18T16:26:30.938Z,69.10
2023-02-18T16:29:08.781Z,69.10
2023-02-18T16:31:37.183Z,69.30
2023-02-18T16:34:06.949Z,69.70
2023-02-18T16:36:35.527Z,70.00
2023-02-18T16:39:04.237Z,70.10
2023-02-18T16:41:32.548Z,70.40
2023-02-18T16:44:00.857Z,70.50
2023-02-18T16:46:31.455Z,71.00
2023-02-18T16:49:00.625Z,71.20
2023-02-18T16:51:36.013Z,71.20
2023-02-18T16:54:04.382Z,71.60
2023-02-18T16:56:35.483Z,71.60
2023-02-18T16:59:03.850Z,71.80
2023-02-18T17:01:34.801Z,72.20
2023-02-18T17:04:03.887Z,72.30
2023-02-18T17:06:38.142Z,72.50
2023-02-18T17:09:15.099Z,72.70
2023-02-18T17:11:44.512Z,72.70
2023-02-18T17:14:17.968Z,72.90
2023-02-18T17:16:46.528Z,73.30
2023-02-18T17:19:15.100Z,73.60
2023-02-18T17:21:48.595Z,73.60
2023-02-18T17:24:19.523Z,74.10
2023-02-18T17:26:47.824Z,74.50
2023-02-18T17:29:16.187Z,74.50
2023-02-18T17:31:47.542Z,74.60
2023-02-18T17:34:26.458Z,74.90
2023-02-18T17:36:56.174Z,75.20
2023-02-18T17:39:24.759Z,75.30
2023-02-18T17:41:53.357Z,75.40
2023-02-18T17:44:23.681Z,75.70
2023-02-18T17:46:52.527Z,75.60
2023-02-18T17:49:21.113Z,76.00
2023-02-18T17:51:49.949Z,76.00
2023-02-18T17:54:22.722Z,76.30
2023-02-18T17:56:51.310Z,76.40
2023-02-18T17:59:19.601Z,76.70
2023-02-18T18:01:47.904Z,77.00
2023-02-18T18:04:18.671Z,77.40
2023-02-18T18:06:47.526Z,77.50
2023-02-18T18:09:15.839Z,77.50
2023-02-18T18:11:45.721Z,77.60
2023-02-18T18:14:15.093Z,78.10
2023-02-18T18:16:43.458Z,78.00
2023-02-18T18:19:11.797Z,78.00
2023-02-18T18:21:40.307Z,78.30
2023-02-18T18:24:12.789Z,78.20
2023-02-18T18:26:41.114Z,78.20
2023-02-18T18:29:10.814Z,78.30
2023-02-18T18:31:39.449Z,78.20
2023-02-18T18:34:07.961Z,78.50
2023-02-18T18:36:36.264Z,78.50
2023-02-18T18:39:04.686Z,78.70
2023-02-18T18:41:34.907Z,78.70
2023-02-18T18:44:05.504Z,79.00
2023-02-18T18:46:35.533Z,78.90
2023-02-18T18:49:04.178Z,78.80
2023-02-18T18:51:34.101Z,78.70
2023-02-18T18:54:03.421Z,78.70
2023-02-18T18:56:31.747Z,78.80
2023-02-18T18:59:00.257Z,78.60
2023-02-18T19:01:29.291Z,78.90
2023-02-18T19:03:59.385Z,79.10
2023-02-18T19:06:27.817Z,79.10
2023-02-18T19:08:56.118Z,79.20
2023-02-18T19:11:24.411Z,78.90
2023-02-18T19:13:52.918Z,79.20
2023-02-18T19:16:23.796Z,79.40
2023-02-18T19:18:53.025Z,79.50
2023-02-18T19:21:22.690Z,79.60
2023-02-18T19:23:51.033Z,79.60
2023-02-18T19:26:19.321Z,79.80
2023-02-18T19:28:47.750Z,79.50
2023-02-18T19:31:16.533Z,79.60
2023-02-18T19:33:47.027Z,79.50
2023-02-18T19:36:16.832Z,79.50
2023-02-18T19:38:46.972Z,79.80
2023-02-18T19:41:17.874Z,80.00
2023-02-18T19:43:47.176Z,80.00
2023-02-18T19:46:18.401Z,79.70
2023-02-18T19:48:50.681Z,79.60
2023-02-18T19:51:19.056Z,79.70
2023-02-18T19:53:51.590Z,79.50
2023-02-18T19:56:20.233Z,79.50
2023-02-18T19:58:48.540Z,79.10
2023-02-18T20:01:18.348Z,79.10
2023-02-18T20:03:48.980Z,79.10
2023-02-18T20:06:18.933Z,80.10
2023-02-18T20:08:49.158Z,79.10
2023-02-18T20:11:17.952Z,79.20
2023-02-18T20:13:48.698Z,79.20
2023-02-18T20:16:17.103Z,79.20
2023-02-18T20:18:45.437Z,79.20
2023-02-18T20:21:14.310Z,79.30
2023-02-18T20:23:43.115Z,79.40
2023-02-18T20:26:14.966Z,79.70
2023-02-18T20:28:44.475Z,79.70
2023-02-18T20:31:14.561Z,79.80
2023-02-18T20:33:43.587Z,79.70
2023-02-18T20:36:14.398Z,79.80
2023-02-18T20:38:43.215Z,79.90
2023-02-18T20:41:17.625Z,79.70
2023-02-18T20:43:46.713Z,79.60
2023-02-18T20:46:16.856Z,79.50
2023-02-18T20:48:54.489Z,79.40
2023-02-18T20:51:24.262Z,79.50
2023-02-18T20:53:53.002Z,79.50
2023-02-18T20:56:23.052Z,79.30
2023-02-18T20:58:51.980Z,79.10
2023-02-18T21:01:20.761Z,79.20
2023-02-18T21:03:49.980Z,79.30
2023-02-18T21:06:20.636Z,79.20
2023-02-18T21:08:50.496Z,79.20
2023-02-18T21:11:20.915Z,79.40
2023-02-18T21:13:52.077Z,79.30
2023-02-18T21:16:22.004Z,79.70
2023-02-18T21:18:50.914Z,79.60
2023-02-18T21:21:20.801Z,79.90
2023-02-18T21:23:49.257Z,80.00
2023-02-18T21:26:19.940Z,80.30
2023-02-18T21:28:50.584Z,80.30
2023-02-18T21:31:20.899Z,80.20
2023-02-18T21:33:49.615Z,80.50
2023-02-18T21:36:18.488Z,80.90
2023-02-18T21:38:52.038Z,80.60
2023-02-18T21:41:20.709Z,80.80
2023-02-18T21:43:51.122Z,80.80
2023-02-18T21:46:21.821Z,81.10
2023-02-18T21:49:09.829Z,81.20
2023-02-18T21:52:00.377Z,81.20
2023-02-18T21:54:31.195Z,80.90
2023-02-18T21:57:00.996Z,80.90
2023-02-18T21:59:31.457Z,80.80
2023-02-18T22:02:01.019Z,80.50
2023-02-18T22:04:30.757Z,80.60
2023-02-18T22:06:59.143Z,80.80
2023-02-18T22:09:27.897Z,80.60
2023-02-18T22:11:56.290Z,81.00
2023-02-18T22:14:24.886Z,81.30
2023-02-18T22:16:54.664Z,82.20
2023-02-18T22:19:22.926Z,81.70
2023-02-18T22:21:51.332Z,82.30
2023-02-18T22:24:20.621Z,82.50
2023-02-18T22:26:50.417Z,82.90
2023-02-18T22:29:20.594Z,83.20
2023-02-18T22:31:49.624Z,83.20
2023-02-18T22:34:19.475Z,83.40
2023-02-18T22:36:48.122Z,83.30
2023-02-18T22:39:17.087Z,83.30
2023-02-18T22:41:45.583Z,83.20
2023-02-18T22:44:16.199Z,83.20
2023-02-18T22:46:44.678Z,83.30
2023-02-18T22:49:13.138Z,83.10
2023-02-18T22:51:44.506Z,83.00
2023-02-18T22:54:14.702Z,82.80
2023-02-18T22:56:44.054Z,82.60
2023-02-18T22:59:13.928Z,82.50
2023-02-18T23:01:44.635Z,82.50
2023-02-18T23:04:15.281Z,82.30
2023-02-18T23:06:46.872Z,82.20
2023-02-18T23:09:17.084Z,82.30
2023-02-18T23:11:46.213Z,82.20
2023-02-18T23:14:21.510Z,82.10
2023-02-18T23:17:08.973Z,82.10
2023-02-18T23:19:38.717Z,82.10
2023-02-18T23:22:09.056Z,81.90
2023-02-18T23:24:38.876Z,82.80
2023-02-18T23:27:09.491Z,81.80
2023-02-18T23:29:38.454Z,81.90
2023-02-18T23:32:07.712Z,81.90
2023-02-18T23:34:36.327Z,82.00
2023-02-18T23:37:04.696Z,81.80
2023-02-18T23:39:35.060Z,81.70
2023-02-18T23:42:03.444Z,81.60
2023-02-18T23:44:31.940Z,81.50
2023-02-18T23:47:00.312Z,81.30
2023-02-18T23:49:29.148Z,81.20
2023-02-18T23:51:58.490Z,81.10
2023-02-18T23:54:27.093Z,80.90
2023-02-18T23:56:56.808Z,80.90
2023-02-18T23:59:25.088Z,80.90
